Time,TemperatureF,DewpointF,PressureIn,WindDirection,WindDirectionDegrees,WindSpeedMPH,WindSpeedGustMPH,Humidity,HourlyPrecipIn,Conditions,Clouds,dailyrainin,SoftwareType,DateUTC
2013-02-18 00:04:00,-999.0,-99.9,29.94,SSW,203,0.0,0.0,-999,0.00,,,0.00,WSDL version 423,2013-02-18 08:04:00,
2013-02-18 00:09:00,-999.0,-99.9,29.95,SSW,203,0.0,0.0,-999,0.00,,,0.00,WSDL version 423,2013-02-18 08:09:00,
2013-02-18 00:14:00,43.3,35.4,29.95,SSW,203,0.0,0.0,74,0.00,,,0.00,WSDL version 423,2013-02-18 08:14:00,
2013-02-18 00:19:00,43.3,35.6,29.95,SSW,203,0.0,0.0,74,0.00,,,0.00,WSDL version 423,2013-02-18 08:19:00,
2013-02-18 00:24:00,-999.0,-99.9,29.95,SSW,203,0.0,0.0,-999,0.00,,,0.00,WSDL version 423,2013-02-18 08:24:00,
2013-02-18 00:29:00,43.2,35.4,29.95,SSW,203,0.0,0.0,74,0.00,,,0.00,WSDL version 423,2013-02-18 08:29:00,
2013-02-18 00:34:00,43.3,35.6,29.95,SSW,203,0.0,0.0,74,0.00,,,0.00,WSDL version 423,2013-02-18 08:34:00,
2013-02-18 00:39:00,43.7,36.6,29.95,SSW,203,0.0,0.0,76,0.00,,,0.00,WSDL version 423,2013-02-18 08:39:00,
2013-02-18 00:44:00,43.8,36.8,29.95,SSW,203,0.0,0.0,76,0.00,,,0.00,WSDL version 423,2013-02-18 08:44:00,
2013-02-18 00:49:00,43.7,36.3,29.95,SSW,203,0.0,0.0,75,0.00,,,0.00,WSDL version 423,2013-02-18 08:49:00,
2013-02-18 00:54:00,43.7,36.3,29.95,SSW,203,0.0,0.0,75,0.00,,,0.00,WSDL version 423,2013-02-18 08:54:00,
2013-02-18 00:59:00,43.8,36.4,29.95,SSW,203,0.0,0.0,75,0.00,,,0.00,WSDL version 423,2013-02-18 08:59:00,
2013-02-18 01:04:00,43.9,36.5,29.95,SSW,203,0.0,0.0,75,0.00,,,0.00,WSDL version 423,2013-02-18 09:04:00,
2013-02-18 01:09:00,44.0,36.6,29.95,SSW,203,0.0,0.0,75,0.00,,,0.00,WSDL version 423,2013-02-18 09:09:00,
2013-02-18 01:14:00,44.2,36.8,29.95,SSW,203,0.0,0.0,75,0.00,,,0.00,WSDL version 423,2013-02-18 09:14:00,
2013-02-18 01:19:00,44.3,37.3,29.95,SSW,203,0.0,0.0,76,0.00,,,0.00,WSDL version 423,2013-02-18 09:19:00,
2013-02-18 01:25:00,44.4,37.3,29.95,SSW,203,0.0,0.0,76,0.00,,,0.00,WSDL version 423,2013-02-18 09:25:00,
2013-02-18 01:34:00,-999.0,-99.9,29.95,SSW,203,0.0,0.0,-999,0.00,,,0.00,WSDL version 423,2013-02-18 09:34:00,
2013-02-18 01:39:00,44.2,36.8,29.95,SSW,203,0.0,0.0,75,0.00,,,0.00,WSDL version 423,2013-02-18 09:39:00,
2013-02-18 01:44:00,44.2,36.8,29.95,SSW,203,0.0,0.0,75,0.00,,,0.00,WSDL version 423,2013-02-18 09:44:00,
2013-02-18 01:49:00,44.2,36.8,29.95,SSW,203,0.0,0.0,75,0.00,,,0.00,WSDL version 423,2013-02-18 09:49:00,
2013-02-18 01:55:00,44.1,36.7,29.95,SSW,203,0.0,0.0,75,0.00,,,0.00,WSDL version 423,2013-02-18 09:55:00,
2013-02-18 02:04:00,43.9,36.3,29.95,SSW,203,0.0,0.0,74,0.00,,,0.00,WSDL version 423,2013-02-18 10:04:00,
2013-02-18 02:09:00,43.8,36.2,29.95,SSW,203,0.0,0.0,75,0.00,,,0.00,WSDL version 423,2013-02-18 10:09:00,
2013-02-18 02:14:00,43.9,36.5,29.95,SSW,203,0.0,0.0,75,0.00,,,0.00,WSDL version 423,2013-02-18 10:14:00,
2013-02-18 02:19:00,-999.0,-99.9,29.95,SSW,203,0.0,0.0,-999,0.00,,,0.00,WSDL version 423,2013-02-18 10:19:00,
2013-02-18 02:24:00,43.7,36.3,29.95,SSW,203,0.0,0.0,75,0.00,,,0.00,WSDL version 423,2013-02-18 10:24:00,
2013-02-18 02:29:00,43.7,36.3,29.95,SSW,203,0.0,0.0,75,0.00,,,0.00,WSDL version 423,2013-02-18 10:29:00,
2013-02-18 02:34:00,43.7,36.3,29.95,SSW,203,0.0,0.0,75,0.00,,,0.00,WSDL version 423,2013-02-18 10:34:00,
2013-02-18 02:39:00,43.8,36.4,29.95,SSW,203,0.0,0.0,75,0.00,,,0.00,WSDL version 423,2013-02-18 10:39:00,
2013-02-18 02:44:00,43.9,36.7,29.95,SSW,203,0.0,0.0,76,0.00,,,0.00,WSDL version 423,2013-02-18 10:44:00,
2013-02-18 02:49:00,44.2,37.1,29.95,SSW,203,0.0,0.0,76,0.00,,,0.00,WSDL version 423,2013-02-18 10:49:00,
2013-02-18 02:55:00,44.2,36.8,29.95,SSW,203,0.0,0.0,75,0.00,,,0.00,WSDL version 423,2013-02-18 10:55:00,
2013-02-18 03:05:00,44.2,36.8,29.94,SSW,203,0.0,0.0,75,0.00,,,0.00,WSDL version 423,2013-02-18 11:05:00,
2013-02-18 03:14:00,44.2,36.8,29.94,SSW,203,0.0,0.0,75,0.00,,,0.00,WSDL version 423,2013-02-18 11:14:00,
2013-02-18 03:19:00,-999.0,-99.9,29.94,SSW,203,0.0,0.0,-999,0.00,,,0.00,WSDL version 423,2013-02-18 11:19:00,
2013-02-18 03:24:00,44.0,36.3,29.93,SSW,203,0.0,0.0,74,0.00,,,0.00,WSDL version 423,2013-02-18 11:24:00,
2013-02-18 03:29:00,43.7,36.0,29.93,SSW,203,0.0,0.0,74,0.00,,,0.00,WSDL version 423,2013-02-18 11:29:00,
2013-02-18 03:34:00,43.7,36.0,29.93,SSW,203,0.0,0.0,74,0.00,,,0.00,WSDL version 423,2013-02-18 11:34:00,
2013-02-18 03:39:00,44.2,36.8,29.93,SSW,203,0.0,0.0,75,0.00,,,0.00,WSDL version 423,2013-02-18 11:39:00,
2013-02-18 03:44:00,44.2,36.7,29.93,SSW,203,0.0,0.0,74,0.00,,,0.00,WSDL version 423,2013-02-18 11:44:00,
2013-02-18 03:50:00,44.4,36.6,29.93,SSW,203,0.0,0.0,74,0.00,,,0.00,WSDL version 423,2013-02-18 11:50:00,
2013-02-18 03:54:00,44.4,36.7,29.93,SSW,203,0.0,0.0,74,0.00,,,0.00,WSDL version 423,2013-02-18 11:54:00,
2013-02-18 04:04:00,44.7,36.6,29.92,SSW,203,0.0,0.0,73,0.00,,,0.00,WSDL version 423,2013-02-18 12:04:00,
2013-02-18 04:09:00,44.9,36.7,29.92,SSW,203,0.0,0.0,73,0.00,,,0.00,WSDL version 423,2013-02-18 12:09:00,
2013-02-18 04:14:00,45.0,36.5,29.92,SSW,203,0.0,0.0,72,0.00,,,0.00,WSDL version 423,2013-02-18 12:14:00,
2013-02-18 04:19:00,45.0,36.5,29.92,SSW,203,0.0,0.0,72,0.00,,,0.00,WSDL version 423,2013-02-18 12:19:00,
2013-02-18 04:24:00,44.7,36.1,29.92,SSW,203,0.0,0.0,71,0.00,,,0.00,WSDL version 423,2013-02-18 12:24:00,
2013-02-18 04:29:00,44.4,36.0,29.92,SSW,203,0.0,0.0,72,0.00,,,0.00,WSDL version 423,2013-02-18 12:29:00,
2013-02-18 04:34:00,44.3,35.9,29.92,SSW,203,0.0,0.0,72,0.00,,,0.00,WSDL version 423,2013-02-18 12:34:00,
2013-02-18 04:39:00,44.2,35.7,29.92,SSW,203,0.0,0.0,71,0.00,,,0.00,WSDL version 423,2013-02-18 12:39:00,
2013-02-18 04:44:00,-999.0,-99.9,29.92,SSW,203,0.0,0.0,-999,0.00,,,0.00,WSDL version 423,2013-02-18 12:44:00,
2013-02-18 04:49:00,43.7,35.0,29.92,SSW,203,0.0,0.0,71,0.00,,,0.00,WSDL version 423,2013-02-18 12:49:00,
2013-02-18 04:54:00,43.5,34.8,29.92,SSW,203,0.0,0.0,72,0.00,,,0.00,WSDL version 423,2013-02-18 12:54:00,
2013-02-18 04:59:00,43.1,34.7,29.92,SSW,203,0.0,0.0,72,0.00,,,0.00,WSDL version 423,2013-02-18 12:59:00,
2013-02-18 05:04:00,43.0,34.6,29.93,SSW,203,0.0,0.0,72,0.00,,,0.00,WSDL version 423,2013-02-18 13:04:00,
2013-02-18 05:09:00,42.8,34.4,29.93,SSW,203,0.0,0.0,72,0.00,,,0.00,WSDL version 423,2013-02-18 13:09:00,
2013-02-18 05:14:00,42.8,34.8,29.93,SSW,203,0.0,0.0,73,0.00,,,0.00,WSDL version 423,2013-02-18 13:14:00,
2013-02-18 05:19:00,42.7,34.6,29.93,SSW,203,0.0,0.0,73,0.00,,,0.00,WSDL version 423,2013-02-18 13:19:00,
2013-02-18 05:24:00,42.6,34.9,29.93,SSW,203,0.0,0.0,74,0.00,,,0.00,WSDL version 423,2013-02-18 13:24:00,
2013-02-18 05:29:00,42.5,34.8,29.93,SSW,203,0.0,0.0,74,0.00,,,0.00,WSDL version 423,2013-02-18 13:29:00,
2013-02-18 05:34:00,42.4,34.7,29.93,SSW,203,0.0,0.0,74,0.00,,,0.00,WSDL version 423,2013-02-18 13:34:00,
2013-02-18 05:39:00,42.3,34.6,29.93,SSW,203,0.0,0.0,74,0.00,,,0.00,WSDL version 423,2013-02-18 13:39:00,
2013-02-18 05:44:00,41.9,34.2,29.93,SSW,203,0.0,0.0,74,0.00,,,0.00,WSDL version 423,2013-02-18 13:44:00,
2013-02-18 05:49:00,42.0,34.5,29.93,SSW,203,0.0,0.0,74,0.00,,,0.00,WSDL version 423,2013-02-18 13:49:00,
2013-02-18 05:54:00,41.5,33.9,29.93,SSW,203,0.0,0.0,74,0.00,,,0.00,WSDL version 423,2013-02-18 13:54:00,
2013-02-18 05:59:00,41.1,33.4,29.94,SSW,203,0.0,0.0,74,0.00,,,0.00,WSDL version 423,2013-02-18 13:59:00,
2013-02-18 06:04:00,40.6,33.1,29.94,SSW,203,0.0,0.0,75,0.00,,,0.00,WSDL version 423,2013-02-18 14:04:00,
2013-02-18 06:09:00,40.4,33.1,29.94,SSW,203,0.0,0.0,75,0.00,,,0.00,WSDL version 423,2013-02-18 14:09:00,
2013-02-18 06:14:00,40.4,33.4,29.93,SSW,203,0.0,0.0,76,0.00,,,0.00,WSDL version 423,2013-02-18 14:14:00,
2013-02-18 06:19:00,40.6,34.3,29.94,SSW,203,0.0,0.0,79,0.00,,,0.00,WSDL version 423,2013-02-18 14:19:00,
2013-02-18 06:24:00,40.8,35.8,29.93,SSW,203,0.0,0.0,83,0.00,,,0.00,WSDL version 423,2013-02-18 14:24:00,
2013-02-18 06:29:00,40.6,35.8,29.94,SSW,203,0.0,0.0,82,0.00,,,0.00,WSDL version 423,2013-02-18 14:29:00,
2013-02-18 06:34:00,40.6,35.7,29.94,SSW,203,0.0,0.0,82,0.00,,,0.00,WSDL version 423,2013-02-18 14:34:00,
2013-02-18 06:39:00,40.6,35.7,29.94,SSW,203,0.0,0.0,82,0.00,,,0.00,WSDL version 423,2013-02-18 14:39:00,
2013-02-18 06:44:00,40.5,35.5,29.94,SSW,203,0.0,0.0,82,0.00,,,0.00,WSDL version 423,2013-02-18 14:44:00,
2013-02-18 06:49:00,40.4,35.2,29.94,SSW,203,0.0,0.0,81,0.00,,,0.00,WSDL version 423,2013-02-18 14:49:00,
2013-02-18 06:54:00,40.3,35.0,29.95,SSW,203,0.0,0.0,81,0.00,,,0.00,WSDL version 423,2013-02-18 14:54:00,
2013-02-18 06:59:00,40.4,35.1,29.95,SSW,203,0.0,0.0,81,0.00,,,0.00,WSDL version 423,2013-02-18 14:59:00,
2013-02-18 07:04:00,-999.0,-99.9,29.95,SSW,203,0.0,0.0,-999,0.00,,,0.00,WSDL version 423,2013-02-18 15:04:00,
2013-02-18 07:09:00,40.6,35.0,29.95,SSW,203,0.0,0.0,80,0.00,,,0.00,WSDL version 423,2013-02-18 15:09:00,
2013-02-18 07:14:00,40.9,35.4,29.95,SSW,203,0.0,0.0,80,0.00,,,0.00,WSDL version 423,2013-02-18 15:14:00,
2013-02-18 07:19:00,41.3,35.8,29.95,SSW,203,0.0,0.0,81,0.00,,,0.00,WSDL version 423,2013-02-18 15:19:00,
2013-02-18 07:24:00,42.2,36.8,29.95,SSW,203,0.0,0.0,81,0.00,,,0.00,WSDL version 423,2013-02-18 15:24:00,
2013-02-18 07:29:00,43.4,38.3,29.95,SSW,203,0.0,0.0,82,0.00,,,0.00,WSDL version 423,2013-02-18 15:29:00,
2013-02-18 07:34:00,44.6,39.2,29.95,SSW,203,0.0,0.0,80,0.00,,,0.00,WSDL version 423,2013-02-18 15:34:00,
2013-02-18 07:39:00,44.8,39.0,29.95,SSW,203,0.0,0.0,80,0.00,,,0.00,WSDL version 423,2013-02-18 15:39:00,
2013-02-18 07:44:00,44.8,38.3,29.95,SSW,203,0.0,0.0,77,0.00,,,0.00,WSDL version 423,2013-02-18 15:44:00,
2013-02-18 07:49:00,45.6,38.8,29.95,SSW,203,0.0,0.0,77,0.00,,,0.00,WSDL version 423,2013-02-18 15:49:00,
2013-02-18 07:54:00,46.8,40.0,29.95,SSW,203,0.0,0.0,77,0.00,,,0.00,WSDL version 423,2013-02-18 15:54:00,
2013-02-18 07:59:00,47.7,40.4,29.95,SSW,203,0.0,0.0,75,0.00,,,0.00,WSDL version 423,2013-02-18 15:59:00,
2013-02-18 08:04:00,48.1,40.2,29.95,SSW,203,0.0,0.0,73,0.00,,,0.00,WSDL version 423,2013-02-18 16:04:00,
2013-02-18 08:14:00,48.8,39.7,29.96,SSW,203,0.0,0.0,70,0.00,,,0.00,WSDL version 423,2013-02-18 16:14:00,
2013-02-18 08:19:00,49.4,39.6,29.96,SSW,203,0.0,0.0,67,0.00,,,0.00,WSDL version 423,2013-02-18 16:19:00,
2013-02-18 08:24:00,50.4,39.6,29.96,SSW,203,0.0,0.0,65,0.00,,,0.00,WSDL version 423,2013-02-18 16:24:00,
2013-02-18 08:29:00,51.3,38.6,29.97,SSW,203,0.0,0.0,59,0.00,,,0.00,WSDL version 423,2013-02-18 16:29:00,
2013-02-18 08:34:00,51.4,37.9,29.97,SSW,203,0.0,0.0,60,0.00,,,0.00,WSDL version 423,2013-02-18 16:34:00,
2013-02-18 08:39:00,51.4,38.0,29.97,SSW,203,0.0,0.0,60,0.00,,,0.00,WSDL version 423,2013-02-18 16:39:00,
2013-02-18 08:44:00,51.6,38.2,29.97,SSW,203,0.0,0.0,60,0.00,,,0.00,WSDL version 423,2013-02-18 16:44:00,
2013-02-18 08:49:00,51.3,37.4,29.98,SSW,203,0.0,0.0,59,0.00,,,0.00,WSDL version 423,2013-02-18 16:49:00,
2013-02-18 08:54:00,51.1,37.8,29.97,SSW,203,0.0,0.0,61,0.00,,,0.00,WSDL version 423,2013-02-18 16:54:00,
2013-02-18 08:59:00,51.6,39.3,29.97,SSW,203,0.0,0.0,63,0.00,,,0.00,WSDL version 423,2013-02-18 16:59:00,
2013-02-18 09:04:00,52.5,40.3,29.97,SSW,203,0.0,0.0,63,0.00,,,0.00,WSDL version 423,2013-02-18 17:04:00,
2013-02-18 09:09:00,53.0,40.9,29.97,SSW,203,0.0,0.0,64,0.00,,,0.00,WSDL version 423,2013-02-18 17:09:00,
2013-02-18 09:14:00,-999.0,-99.9,29.97,SSW,203,0.0,0.0,-999,0.00,,,0.00,WSDL version 423,2013-02-18 17:14:00,
2013-02-18 09:20:00,53.1,39.8,29.97,SSW,203,0.0,0.0,61,0.00,,,0.00,WSDL version 423,2013-02-18 17:20:00,
2013-02-18 09:29:00,-999.0,-99.9,29.97,SSW,203,0.0,0.0,-999,0.00,,,0.00,WSDL version 423,2013-02-18 17:29:00,
2013-02-18 09:34:00,53.2,39.7,29.97,SSW,203,0.0,0.0,60,0.00,,,0.00,WSDL version 423,2013-02-18 17:34:00,
2013-02-18 09:39:00,-999.0,-99.9,29.98,SSW,203,0.0,0.0,-999,0.00,,,0.00,WSDL version 423,2013-02-18 17:39:00,
2013-02-18 09:44:00,-999.0,-99.9,29.98,SSW,203,0.0,0.0,-999,0.00,,,0.00,WSDL version 423,2013-02-18 17:44:00,
2013-02-18 09:49:00,-999.0,-99.9,29.97,SSW,203,0.0,0.0,-999,0.00,,,0.00,WSDL version 423,2013-02-18 17:49:00,
2013-02-18 09:54:00,54.3,40.7,29.97,SSW,203,0.0,0.0,60,0.00,,,0.00,WSDL version 423,2013-02-18 17:54:00,
2013-02-18 09:59:00,-999.0,-99.9,29.97,SSW,203,0.0,0.0,-999,0.00,,,0.00,WSDL version 423,2013-02-18 17:59:00,
2013-02-18 10:04:00,-999.0,-99.9,29.97,SSW,203,0.0,0.0,-999,0.00,,,0.00,WSDL version 423,2013-02-18 18:04:00,
2013-02-18 10:09:00,55.2,40.7,29.97,SSW,203,0.0,0.0,58,0.00,,,0.00,WSDL version 423,2013-02-18 18:09:00,
2013-02-18 10:14:00,-999.0,-99.9,29.97,SSW,203,0.0,0.0,-999,0.00,,,0.00,WSDL version 423,2013-02-18 18:14:00,
2013-02-18 10:19:00,-999.0,-99.9,29.98,SSW,203,0.0,0.0,-999,0.00,,,0.00,WSDL version 423,2013-02-18 18:19:00,
2013-02-18 10:24:00,-999.0,-99.9,29.97,SSW,203,0.0,0.0,-999,0.00,,,0.00,WSDL version 423,2013-02-18 18:24:00,
2013-02-18 10:29:00,-999.0,-99.9,29.97,SSW,203,0.0,0.0,-999,0.00,,,0.00,WSDL version 423,2013-02-18 18:29:00,
2013-02-18 10:34:00,-999.0,-99.9,29.97,SSW,203,0.0,0.0,-999,0.00,,,0.00,WSDL version 423,2013-02-18 18:34:00,
2013-02-18 10:39:00,-999.0,-99.9,29.97,SSW,203,0.0,0.0,-999,0.00,,,0.00,WSDL version 423,2013-02-18 18:39:00,
2013-02-18 10:44:00,-999.0,-99.9,29.97,SSW,203,0.0,0.0,-999,0.00,,,0.00,WSDL version 423,2013-02-18 18:44:00,
2013-02-18 10:49:00,-999.0,-99.9,29.97,SSW,203,0.0,0.0,-999,0.00,,,0.00,WSDL version 423,2013-02-18 18:49:00,
2013-02-18 10:54:00,57.6,39.6,29.97,SSW,203,0.0,0.0,51,0.00,,,0.00,WSDL version 423,2013-02-18 18:54:00,
2013-02-18 10:59:00,-999.0,-99.9,29.97,SSW,203,0.0,0.0,-999,0.00,,,0.00,WSDL version 423,2013-02-18 18:59:00,
2013-02-18 11:04:00,57.7,39.2,29.97,SSW,203,0.0,0.0,50,0.00,,,0.00,WSDL version 423,2013-02-18 19:04:00,
2013-02-18 11:09:00,-999.0,-99.9,29.97,SSW,203,0.0,0.0,-999,0.00,,,0.00,WSDL version 423,2013-02-18 19:09:00,
2013-02-18 11:14:00,58.1,39.6,29.97,SSW,203,0.0,0.0,50,0.00,,,0.00,WSDL version 423,2013-02-18 19:14:00,
2013-02-18 11:19:00,-999.0,-99.9,29.96,SSW,203,0.0,0.0,-999,0.00,,,0.00,WSDL version 423,2013-02-18 19:19:00,
2013-02-18 11:24:00,-999.0,-99.9,29.96,SSW,203,0.0,0.0,-999,0.00,,,0.00,WSDL version 423,2013-02-18 19:24:00,
2013-02-18 11:29:00,-999.0,-99.9,29.96,SSW,203,0.0,0.0,-999,0.00,,,0.00,WSDL version 423,2013-02-18 19:29:00,
2013-02-18 11:34:00,-999.0,-99.9,29.96,SSW,203,0.0,0.0,-999,0.00,,,0.00,WSDL version 423,2013-02-18 19:34:00,
2013-02-18 11:39:00,58.9,40.5,29.96,SSW,203,0.0,0.0,51,0.00,,,0.00,WSDL version 423,2013-02-18 19:39:00,
2013-02-18 11:44:00,58.8,38.7,29.96,SSW,203,0.0,0.0,47,0.00,,,0.00,WSDL version 423,2013-02-18 19:44:00,
2013-02-18 11:54:00,-999.0,-99.9,29.95,SSW,203,0.0,0.0,-999,0.00,,,0.00,WSDL version 423,2013-02-18 19:54:00,
2013-02-18 11:59:00,-999.0,-99.9,29.95,SSW,203,0.0,0.0,-999,0.00,,,0.00,WSDL version 423,2013-02-18 19:59:00,
2013-02-18 12:04:00,60.1,40.3,29.94,SSW,203,0.0,0.0,48,0.00,,,0.00,WSDL version 423,2013-02-18 20:04:00,
2013-02-18 12:09:00,59.9,39.6,29.94,SSW,203,0.0,0.0,47,0.00,,,0.00,WSDL version 423,2013-02-18 20:09:00,
2013-02-18 12:14:00,59.5,39.4,29.94,SSW,203,0.0,0.0,48,0.00,,,0.00,WSDL version 423,2013-02-18 20:14:00,
2013-02-18 12:19:00,59.7,39.2,29.94,SSW,203,0.0,0.0,46,0.00,,,0.00,WSDL version 423,2013-02-18 20:19:00,
2013-02-18 12:24:00,-999.0,-99.9,29.93,SSW,203,0.0,0.0,-999,0.00,,,0.00,WSDL version 423,2013-02-18 20:24:00,
2013-02-18 12:34:00,-999.0,-99.9,29.93,SSW,203,0.0,0.0,-999,0.00,,,0.00,WSDL version 423,2013-02-18 20:34:00,
2013-02-18 12:39:00,59.9,39.6,29.93,SSW,203,0.0,0.0,47,0.00,,,0.00,WSDL version 423,2013-02-18 20:39:00,
2013-02-18 12:44:00,59.9,39.1,29.93,SSW,203,0.0,0.0,46,0.00,,,0.00,WSDL version 423,2013-02-18 20:44:00,
2013-02-18 12:49:00,-999.0,-99.9,29.93,SSW,203,0.0,0.0,-999,0.00,,,0.00,WSDL version 423,2013-02-18 20:49:00,
2013-02-18 12:54:00,-999.0,-99.9,29.93,SSW,203,0.0,0.0,-999,0.00,,,0.00,WSDL version 423,2013-02-18 20:54:00,
2013-02-18 12:59:00,-999.0,-99.9,29.93,SSW,203,0.0,0.0,-999,0.00,,,0.00,WSDL version 423,2013-02-18 20:59:00,
2013-02-18 13:04:00,-999.0,-99.9,29.92,SSW,203,0.0,0.0,-999,0.00,,,0.00,WSDL version 423,2013-02-18 21:04:00,
2013-02-18 13:09:00,-999.0,-99.9,29.92,SSW,203,0.0,0.0,-999,0.00,,,0.00,WSDL version 423,2013-02-18 21:09:00,
2013-02-18 13:14:00,-999.0,-99.9,29.92,SSW,203,0.0,0.0,-999,0.00,,,0.00,WSDL version 423,2013-02-18 21:14:00,
2013-02-18 13:24:00,-999.0,-99.9,29.92,SSW,203,0.0,0.0,-999,0.00,,,0.00,WSDL version 423,2013-02-18 21:24:00,
2013-02-18 13:29:00,-999.0,-99.9,29.91,SSW,203,0.0,0.0,-999,0.00,,,0.00,WSDL version 423,2013-02-18 21:29:00,
2013-02-18 13:34:00,-999.0,-99.9,29.91,SSW,203,0.0,0.0,-999,0.00,,,0.00,WSDL version 423,2013-02-18 21:34:00,
2013-02-18 13:39:00,-999.0,-99.9,29.91,SSW,203,0.0,0.0,-999,0.00,,,0.00,WSDL version 423,2013-02-18 21:39:00,
2013-02-18 13:44:00,-999.0,-99.9,29.90,SSW,203,0.0,0.0,-999,0.00,,,0.00,WSDL version 423,2013-02-18 21:44:00,
2013-02-18 13:49:00,-999.0,-99.9,29.90,SSW,203,0.0,0.0,-999,0.00,,,0.00,WSDL version 423,2013-02-18 21:49:00,
2013-02-18 13:54:00,-999.0,-99.9,29.90,SSW,203,0.0,0.0,-999,0.00,,,0.00,WSDL version 423,2013-02-18 21:54:00,
2013-02-18 13:59:00,-999.0,-99.9,29.89,SSW,203,0.0,0.0,-999,0.00,,,0.00,WSDL version 423,2013-02-18 21:59:00,
2013-02-18 14:04:00,-999.0,-99.9,29.89,SSW,203,0.0,0.0,-999,0.00,,,0.00,WSDL version 423,2013-02-18 22:04:00,
2013-02-18 14:09:00,-999.0,-99.9,29.89,SSW,203,0.0,0.0,-999,0.00,,,0.00,WSDL version 423,2013-02-18 22:09:00,
2013-02-18 14:14:00,-999.0,-99.9,29.89,SSW,203,0.0,0.0,-999,0.00,,,0.00,WSDL version 423,2013-02-18 22:14:00,
2013-02-18 14:19:00,-999.0,-99.9,29.89,SSW,203,0.0,0.0,-999,0.00,,,0.00,WSDL version 423,2013-02-18 22:19:00,
2013-02-18 14:24:00,-999.0,-99.9,29.89,SSW,203,0.0,0.0,-999,0.00,,,0.00,WSDL version 423,2013-02-18 22:24:00,
2013-02-18 14:29:00,-999.0,-99.9,29.89,SSW,203,0.0,0.0,-999,0.00,,,0.00,WSDL version 423,2013-02-18 22:29:00,
2013-02-18 14:34:00,-999.0,-99.9,29.88,SSW,203,0.0,0.0,-999,0.00,,,0.00,WSDL version 423,2013-02-18 22:34:00,
2013-02-18 14:39:00,-999.0,-99.9,29.88,SSW,203,0.0,0.0,-999,0.00,,,0.00,WSDL version 423,2013-02-18 22:39:00,
2013-02-18 14:44:00,-999.0,-99.9,29.87,SSW,203,0.0,0.0,-999,0.00,,,0.00,WSDL version 423,2013-02-18 22:44:00,
2013-02-18 14:49:00,-999.0,-99.9,29.87,SSW,203,0.0,0.0,-999,0.00,,,0.00,WSDL version 423,2013-02-18 22:49:00,
2013-02-18 14:54:00,-999.0,-99.9,29.87,SSW,203,0.0,0.0,-999,0.00,,,0.00,WSDL version 423,2013-02-18 22:54:00,
2013-02-18 14:59:00,-999.0,-99.9,29.87,SSW,203,0.0,0.0,-999,0.00,,,0.00,WSDL version 423,2013-02-18 22:59:00,
2013-02-18 15:04:00,-999.0,-99.9,29.87,SSW,203,0.0,0.0,-999,0.00,,,0.00,WSDL version 423,2013-02-18 23:04:00,
2013-02-18 15:09:00,-999.0,-99.9,29.88,SSW,203,0.0,0.0,-999,0.00,,,0.00,WSDL version 423,2013-02-18 23:09:00,
2013-02-18 15:14:00,-999.0,-99.9,29.88,SSW,203,0.0,0.0,-999,0.00,,,0.00,WSDL version 423,2013-02-18 23:14:00,
2013-02-18 15:19:00,-999.0,-99.9,29.87,SSW,203,0.0,0.0,-999,0.00,,,0.00,WSDL version 423,2013-02-18 23:19:00,
2013-02-18 15:24:00,-999.0,-99.9,29.87,SSW,203,0.0,0.0,-999,0.00,,,0.00,WSDL version 423,2013-02-18 23:24:00,
2013-02-18 15:29:00,-999.0,-99.9,29.87,SSW,203,0.0,0.0,-999,0.00,,,0.00,WSDL version 423,2013-02-18 23:29:00,
2013-02-18 15:34:00,-999.0,-99.9,29.87,SSW,203,0.0,0.0,-999,0.00,,,0.00,WSDL version 423,2013-02-18 23:34:00,
2013-02-18 15:39:00,-999.0,-99.9,29.87,SSW,203,0.0,0.0,-999,0.00,,,0.00,WSDL version 423,2013-02-18 23:39:00,
2013-02-18 15:44:00,-999.0,-99.9,29.87,SSW,203,0.0,0.0,-999,0.00,,,0.00,WSDL version 423,2013-02-18 23:44:00,
2013-02-18 15:49:00,-999.0,-99.9,29.86,SSW,203,0.0,0.0,-999,0.00,,,0.00,WSDL version 423,2013-02-18 23:49:00,
2013-02-18 15:54:00,-999.0,-99.9,29.87,SSW,203,0.0,0.0,-999,0.00,,,0.00,WSDL version 423,2013-02-18 23:54:00,
2013-02-18 15:59:00,-999.0,-99.9,29.87,SSW,203,0.0,0.0,-999,0.00,,,0.00,WSDL version 423,2013-02-18 23:59:00,
2013-02-18 16:04:00,-999.0,-99.9,29.87,SSW,203,0.0,0.0,-999,0.00,,,0.00,WSDL version 423,2013-02-19 00:04:00,
2013-02-18 16:09:00,-999.0,-99.9,29.87,SSW,203,0.0,0.0,-999,0.00,,,0.00,WSDL version 423,2013-02-19 00:09:00,
2013-02-18 16:14:00,-999.0,-99.9,29.87,SSW,203,0.0,0.0,-999,0.00,,,0.00,WSDL version 423,2013-02-19 00:14:00,
2013-02-18 16:19:00,-999.0,-99.9,29.87,SSW,203,0.0,0.0,-999,0.00,,,0.00,WSDL version 423,2013-02-19 00:19:00,
2013-02-18 16:24:00,-999.0,-99.9,29.87,SSW,203,0.0,0.0,-999,0.00,,,0.00,WSDL version 423,2013-02-19 00:24:00,
2013-02-18 16:29:00,-999.0,-99.9,29.87,SSW,203,0.0,0.0,-999,0.00,,,0.00,WSDL version 423,2013-02-19 00:29:00,
2013-02-18 16:34:00,-999.0,-99.9,29.87,SSW,203,0.0,0.0,-999,0.00,,,0.00,WSDL version 423,2013-02-19 00:34:00,
2013-02-18 16:44:00,-999.0,-99.9,29.87,SSW,203,0.0,0.0,-999,0.00,,,0.00,WSDL version 423,2013-02-19 00:44:00,
2013-02-18 16:49:00,-999.0,-99.9,29.87,SSW,203,0.0,0.0,-999,0.00,,,0.00,WSDL version 423,2013-02-19 00:49:00,
2013-02-18 16:54:00,-999.0,-99.9,29.87,SSW,203,0.0,0.0,-999,0.00,,,0.00,WSDL version 423,2013-02-19 00:54:00,
2013-02-18 17:04:00,-999.0,-99.9,29.88,SSW,203,0.0,0.0,-999,0.00,,,0.00,WSDL version 423,2013-02-19 01:04:00,
2013-02-18 17:09:00,-999.0,-99.9,29.88,SSW,203,0.0,0.0,-999,0.00,,,0.00,WSDL version 423,2013-02-19 01:09:00,
2013-02-18 17:19:00,-999.0,-99.9,29.88,SSW,203,0.0,0.0,-999,0.00,,,0.00,WSDL version 423,2013-02-19 01:19:00,
2013-02-18 17:24:00,-999.0,-99.9,29.88,SSW,203,0.0,0.0,-999,0.00,,,0.00,WSDL version 423,2013-02-19 01:24:00,
2013-02-18 17:34:00,-999.0,-99.9,29.89,SSW,203,0.0,0.0,-999,0.00,,,0.00,WSDL version 423,2013-02-19 01:34:00,
2013-02-18 17:44:00,-999.0,-99.9,29.89,SSW,203,0.0,0.0,-999,0.00,,,0.00,WSDL version 423,2013-02-19 01:44:00,
2013-02-18 17:54:00,-999.0,-99.9,29.89,SSW,203,0.0,0.0,-999,0.00,,,0.00,WSDL version 423,2013-02-19 01:54:00,
2013-02-18 17:59:00,-999.0,-99.9,29.89,SSW,203,0.0,0.0,-999,0.00,,,0.00,WSDL version 423,2013-02-19 01:59:00,
2013-02-18 18:04:00,-999.0,-99.9,29.90,SSW,203,0.0,0.0,-999,0.00,,,0.00,WSDL version 423,2013-02-19 02:04:00,
2013-02-18 18:09:00,-999.0,-99.9,29.90,SSW,203,0.0,0.0,-999,0.00,,,0.00,WSDL version 423,2013-02-19 02:09:00,
2013-02-18 18:19:00,48.7,35.1,29.90,SSW,203,0.0,0.0,59,0.00,,,0.00,WSDL version 423,2013-02-19 02:19:00,
2013-02-18 18:24:00,48.7,35.5,29.91,SSW,203,0.0,0.0,60,0.00,,,0.00,WSDL version 423,2013-02-19 02:24:00,
2013-02-18 18:29:00,48.7,35.1,29.91,SSW,203,0.0,0.0,59,0.00,,,0.00,WSDL version 423,2013-02-19 02:29:00,
2013-02-18 18:39:00,-999.0,-99.9,29.92,SSW,203,0.0,0.0,-999,0.00,,,0.00,WSDL version 423,2013-02-19 02:39:00,
2013-02-18 18:44:00,48.4,34.7,29.92,SSW,203,0.0,0.0,59,0.00,,,0.00,WSDL version 423,2013-02-19 02:44:00,
2013-02-18 18:49:00,48.4,34.9,29.92,SSW,203,0.0,0.0,60,0.00,,,0.00,WSDL version 423,2013-02-19 02:49:00,
2013-02-18 18:54:00,48.4,34.9,29.92,SSW,203,0.0,0.0,59,0.00,,,0.00,WSDL version 423,2013-02-19 02:54:00,
2013-02-18 18:59:00,-999.0,-99.9,29.92,SSW,203,0.0,0.0,-999,0.00,,,0.00,WSDL version 423,2013-02-19 02:59:00,
2013-02-18 19:04:00,48.4,34.7,29.92,SSW,203,0.0,0.0,59,0.00,,,0.00,WSDL version 423,2013-02-19 03:04:00,
2013-02-18 19:09:00,48.3,34.2,29.92,SSW,203,0.0,0.0,58,0.00,,,0.00,WSDL version 423,2013-02-19 03:09:00,
2013-02-18 19:14:00,-999.0,-99.9,29.92,SSW,203,0.0,0.0,-999,0.00,,,0.00,WSDL version 423,2013-02-19 03:14:00,
2013-02-18 19:19:00,48.2,34.3,29.92,SSW,203,0.0,0.0,59,0.00,,,0.00,WSDL version 423,2013-02-19 03:19:00,
2013-02-18 19:29:00,47.8,34.6,29.92,SSW,203,0.0,0.0,60,0.00,,,0.00,WSDL version 423,2013-02-19 03:29:00,
2013-02-18 19:39:00,-999.0,-99.9,29.92,SSW,203,0.0,0.0,-999,0.00,,,0.00,WSDL version 423,2013-02-19 03:39:00,
2013-02-18 19:44:00,47.5,35.1,29.91,SSW,203,0.0,0.0,62,0.00,,,0.00,WSDL version 423,2013-02-19 03:44:00,
2013-02-18 19:49:00,-999.0,-99.9,29.91,SSW,203,0.0,0.0,-999,0.00,,,0.00,WSDL version 423,2013-02-19 03:49:00,
2013-02-18 19:54:00,-999.0,-99.9,29.91,SSW,203,0.0,0.0,-999,0.00,,,0.00,WSDL version 423,2013-02-19 03:54:00,
2013-02-18 20:04:00,-999.0,-99.9,29.91,SSW,203,0.0,0.0,-999,0.00,,,0.00,WSDL version 423,2013-02-19 04:04:00,
2013-02-18 20:09:00,47.1,35.2,29.91,SSW,203,0.0,0.0,63,0.00,,,0.00,WSDL version 423,2013-02-19 04:09:00,
2013-02-18 20:14:00,-999.0,-99.9,29.91,SSW,203,0.0,0.0,-999,0.00,,,0.00,WSDL version 423,2013-02-19 04:14:00,
2013-02-18 20:19:00,46.9,35.0,29.91,SSW,203,0.0,0.0,63,0.00,,,0.00,WSDL version 423,2013-02-19 04:19:00,
2013-02-18 20:24:00,-999.0,-99.9,29.91,SSW,203,0.0,0.0,-999,0.00,,,0.00,WSDL version 423,2013-02-19 04:24:00,
2013-02-18 20:29:00,-999.0,-99.9,29.91,SSW,203,0.0,0.0,-999,0.00,,,0.00,WSDL version 423,2013-02-19 04:29:00,
2013-02-18 20:34:00,-999.0,-99.9,29.91,SSW,203,0.0,0.0,-999,0.00,,,0.00,WSDL version 423,2013-02-19 04:34:00,
2013-02-18 20:44:00,46.8,34.4,29.92,SSW,203,0.0,0.0,62,0.00,,,0.00,WSDL version 423,2013-02-19 04:44:00,
2013-02-18 20:49:00,46.8,34.4,29.92,SSW,203,0.0,0.0,62,0.00,,,0.00,WSDL version 423,2013-02-19 04:49:00,
2013-02-18 20:54:00,46.7,34.4,29.91,SSW,203,0.0,0.0,62,0.00,,,0.00,WSDL version 423,2013-02-19 04:54:00,
2013-02-18 20:59:00,46.6,34.3,29.91,SSW,203,0.0,0.0,62,0.00,,,0.00,WSDL version 423,2013-02-19 04:59:00,
2013-02-18 21:04:00,-999.0,-99.9,29.91,SSW,203,0.0,0.0,-999,0.00,,,0.00,WSDL version 423,2013-02-19 05:04:00,
2013-02-18 21:09:00,46.6,34.3,29.92,SSW,203,0.0,0.0,62,0.00,,,0.00,WSDL version 423,2013-02-19 05:09:00,
2013-02-18 21:19:00,-999.0,-99.9,29.91,SSW,203,0.0,0.0,-999,0.00,,,0.00,WSDL version 423,2013-02-19 05:19:00,
2013-02-18 21:29:00,46.5,34.6,29.92,SSW,203,0.0,0.0,63,0.00,,,0.00,WSDL version 423,2013-02-19 05:29:00,
2013-02-18 21:34:00,46.4,34.5,29.92,SSW,203,0.0,0.0,63,0.00,,,0.00,WSDL version 423,2013-02-19 05:34:00,
2013-02-18 21:39:00,46.4,34.5,29.92,SSW,203,0.0,0.0,63,0.00,,,0.00,WSDL version 423,2013-02-19 05:39:00,
2013-02-18 21:44:00,-999.0,-99.9,29.92,SSW,203,0.0,0.0,-999,0.00,,,0.00,WSDL version 423,2013-02-19 05:44:00,
2013-02-18 21:49:00,-999.0,-99.9,29.91,SSW,203,0.0,0.0,-999,0.00,,,0.00,WSDL version 423,2013-02-19 05:49:00,
2013-02-18 21:54:00,-999.0,-99.9,29.91,SSW,203,0.0,0.0,-999,0.00,,,0.00,WSDL version 423,2013-02-19 05:54:00,
2013-02-18 22:04:00,46.0,35.3,29.91,SSW,203,0.0,0.0,66,0.00,,,0.00,WSDL version 423,2013-02-19 06:04:00,
2013-02-18 22:09:00,46.0,35.7,29.91,SSW,203,0.0,0.0,67,0.00,,,0.00,WSDL version 423,2013-02-19 06:09:00,
2013-02-18 22:14:00,45.9,35.5,29.91,SSW,203,0.0,0.0,67,0.00,,,0.00,WSDL version 423,2013-02-19 06:14:00,
2013-02-18 22:19:00,45.9,35.5,29.91,SSW,203,0.0,0.0,67,0.00,,,0.00,WSDL version 423,2013-02-19 06:19:00,
2013-02-18 22:24:00,45.9,35.5,29.91,SSW,203,0.0,0.0,67,0.00,,,0.00,WSDL version 423,2013-02-19 06:24:00,
2013-02-18 22:29:00,-999.0,-99.9,29.91,SSW,203,0.0,0.0,-999,0.00,,,0.00,WSDL version 423,2013-02-19 06:29:00,
2013-02-18 22:34:00,46.0,35.7,29.91,SSW,203,0.0,0.0,67,0.00,,,0.00,WSDL version 423,2013-02-19 06:34:00,
2013-02-18 22:44:00,-999.0,-99.9,29.91,SSW,203,0.0,0.0,-999,0.00,,,0.00,WSDL version 423,2013-02-19 06:44:00,
2013-02-18 22:49:00,46.0,35.7,29.91,SSW,203,0.0,0.0,67,0.00,,,0.00,WSDL version 423,2013-02-19 06:49:00,
2013-02-18 22:54:00,46.0,35.7,29.91,SSW,203,0.0,0.0,67,0.00,,,0.00,WSDL version 423,2013-02-19 06:54:00,
2013-02-18 22:59:00,46.2,35.9,29.90,SSW,203,0.0,0.0,67,0.00,,,0.00,WSDL version 423,2013-02-19 06:59:00,
2013-02-18 23:04:00,-999.0,-99.9,29.90,SSW,203,0.0,0.0,-999,0.00,,,0.00,WSDL version 423,2013-02-19 07:04:00,
2013-02-18 23:09:00,-999.0,-99.9,29.90,SSW,203,0.0,0.0,-999,0.00,,,0.00,WSDL version 423,2013-02-19 07:09:00,
2013-02-18 23:14:00,-999.0,-99.9,29.90,SSW,203,0.0,0.0,-999,0.00,,,0.00,WSDL version 423,2013-02-19 07:14:00,
2013-02-18 23:19:00,46.0,36.1,29.90,SSW,203,0.0,0.0,68,0.00,,,0.00,WSDL version 423,2013-02-19 07:19:00,
2013-02-18 23:24:00,46.0,36.1,29.89,SSW,203,0.0,0.0,68,0.00,,,0.00,WSDL version 423,2013-02-19 07:24:00,
2013-02-18 23:29:00,46.0,36.5,29.89,SSW,203,0.0,0.0,69,0.00,,,0.00,WSDL version 423,2013-02-19 07:29:00,
2013-02-18 23:34:00,46.0,36.5,29.89,SSW,203,0.0,0.0,69,0.00,,,0.00,WSDL version 423,2013-02-19 07:34:00,
2013-02-18 23:44:00,45.9,36.3,29.90,SSW,203,0.0,0.0,69,0.00,,,0.00,WSDL version 423,2013-02-19 07:44:00,
2013-02-18 23:49:00,45.9,36.3,29.90,SSW,203,0.0,0.0,69,0.00,,,0.00,WSDL version 423,2013-02-19 07:49:00,
2013-02-18 23:59:00,45.8,36.6,29.90,SSW,203,0.0,0.0,70,0.00,,,0.00,WSDL version 423,2013-02-19 07:59:00,